createdAt,value
2018-08-13T00:01:48.454Z,8.40
2018-08-13T00:04:19.268Z,7.60
2018-08-13T00:06:50.033Z,7.87
2018-08-13T00:09:25.865Z,7.43
2018-08-13T00:11:56.612Z,7.37
2018-08-13T00:14:27.402Z,7.17
2018-08-13T00:16:58.168Z,6.73
2018-08-13T00:19:29.035Z,5.80
2018-08-13T00:21:59.840Z,7.10
2018-08-13T00:24:30.643Z,6.50
2018-08-13T00:27:01.394Z,6.87
2018-08-13T00:29:32.316Z,9.40
2018-08-13T00:32:03.152Z,8.33
2018-08-13T14:05:26.425Z,5.58
2018-08-13T14:07:57.219Z,3.47
2018-08-13T14:10:28.187Z,3.60
2018-08-13T14:12:59.083Z,2.80
2018-08-13T14:15:29.936Z,3.40
2018-08-13T14:18:00.757Z,3.40
2018-08-13T14:20:31.591Z,3.20
2018-08-13T14:23:02.458Z,3.03
2018-08-13T14:25:36.044Z,3.77
2018-08-13T14:28:07.295Z,4.50
2018-08-13T14:30:38.623Z,3.00
2018-08-13T14:33:09.443Z,3.10
2018-08-13T14:35:40.274Z,3.10
2018-08-13T14:38:11.148Z,3.83
2018-08-13T14:40:42.277Z,3.83
2018-08-13T14:43:13.128Z,3.50
2018-08-13T14:45:44.307Z,3.17
2018-08-13T14:48:15.097Z,3.53
2018-08-13T14:50:45.947Z,3.40
2018-08-13T14:53:16.791Z,4.00
2018-08-13T14:55:47.690Z,3.80
2018-08-13T14:58:18.553Z,3.30
2018-08-13T15:00:49.818Z,3.93
2018-08-13T15:03:20.630Z,3.57
2018-08-13T15:05:51.453Z,3.90
2018-08-13T15:08:22.432Z,3.27
2018-08-13T15:18:04.388Z,3.93
2018-08-13T15:20:35.207Z,4.03
2018-08-13T15:23:06.117Z,5.90
2018-08-13T15:25:37.020Z,5.10
2018-08-13T15:28:08.523Z,5.10
2018-08-13T15:30:39.362Z,4.47
2018-08-13T15:33:10.539Z,4.77
2018-08-13T15:35:41.342Z,4.67
2018-08-13T15:38:15.066Z,3.80
2018-08-13T15:40:45.916Z,4.37
2018-08-13T15:43:16.799Z,4.30
2018-08-13T15:45:47.584Z,3.50
2018-08-13T15:48:18.402Z,3.77
2018-08-13T15:50:49.177Z,4.33
2018-08-13T15:53:20.001Z,4.63
2018-08-13T15:55:50.805Z,5.27
2018-08-13T15:58:21.681Z,4.80
2018-08-13T16:00:52.883Z,5.10
2018-08-13T16:03:24.218Z,5.67
2018-08-13T16:05:55.034Z,8.20
2018-08-13T16:08:25.999Z,5.47
2018-08-13T16:10:56.780Z,6.10
2018-08-13T16:13:27.702Z,9.60
2018-08-13T16:15:58.607Z,6.10
2018-08-13T16:18:33.316Z,4.60
2018-08-13T16:21:04.154Z,27.17
2018-08-13T16:23:34.992Z,3.73
2018-08-13T16:26:05.892Z,3.20
2018-08-13T16:28:36.761Z,3.00
2018-08-13T16:31:07.589Z,3.23
2018-08-13T16:33:38.426Z,3.20
2018-08-13T16:36:09.526Z,2.77
2018-08-13T16:38:40.369Z,2.97
2018-08-13T16:41:11.154Z,2.77
2018-08-13T16:43:41.964Z,3.53
2018-08-13T16:46:12.807Z,2.67
2018-08-13T16:48:43.629Z,3.07
2018-08-13T16:51:14.798Z,2.93
2018-08-13T16:53:57.356Z,2.93
2018-08-13T16:56:28.151Z,3.77
2018-08-13T16:58:59.172Z,3.60
2018-08-13T17:01:30.135Z,2.93
2018-08-13T17:04:00.981Z,3.30
2018-08-13T17:06:31.797Z,2.90
2018-08-13T17:09:03.168Z,2.90
2018-08-13T17:11:34.761Z,3.13
2018-08-13T17:14:10.173Z,4.13
2018-08-13T17:16:43.223Z,4.77
2018-08-13T17:19:14.192Z,4.57
2018-08-13T17:21:45.132Z,17.70
2018-08-13T17:24:16.724Z,46.33
2018-08-13T17:26:47.945Z,59.27
2018-08-13T17:29:18.873Z,27.47
2018-08-13T17:31:49.704Z,8.33
2018-08-13T17:34:20.563Z,5.07
2018-08-13T17:36:51.440Z,5.20
2018-08-13T17:39:22.401Z,4.20
2018-08-13T17:41:53.629Z,3.90
2018-08-13T17:44:24.853Z,4.53
2018-08-13T17:46:55.679Z,4.03
2018-08-13T17:49:26.550Z,4.53
2018-08-13T17:51:57.388Z,9.70
2018-08-13T17:54:28.254Z,6.23
2018-08-13T17:56:59.146Z,6.37
2018-08-13T17:59:30.149Z,5.43
2018-08-13T18:02:01.454Z,8.70
2018-08-13T18:04:32.341Z,15.40
2018-08-13T18:07:03.312Z,18.97
2018-08-13T18:09:34.204Z,18.63
2018-08-13T18:12:06.266Z,20.43
2018-08-13T18:14:37.310Z,17.27
2018-08-13T18:17:08.533Z,10.77
2018-08-13T18:19:39.578Z,7.07
2018-08-13T18:22:10.858Z,7.87
2018-08-13T18:24:41.748Z,8.07
2018-08-13T18:27:12.625Z,6.90
2018-08-13T18:29:43.532Z,8.17
2018-08-13T18:32:14.445Z,5.97
2018-08-13T18:34:51.934Z,5.10
2018-08-13T18:37:24.163Z,5.03
2018-08-13T18:39:56.299Z,5.43
2018-08-13T18:42:28.281Z,4.83
2018-08-13T18:48:11.063Z,5.57
2018-08-13T18:50:43.711Z,4.90
2018-08-13T18:53:16.472Z,6.27
2018-08-13T18:55:47.401Z,5.53
2018-08-13T18:58:18.185Z,4.60
2018-08-13T19:00:53.523Z,4.73
2018-08-13T19:03:24.523Z,4.97
2018-08-13T19:06:07.615Z,4.97
2018-08-13T19:08:38.428Z,4.60
2018-08-13T19:11:09.453Z,4.97
2018-08-13T19:13:40.305Z,5.10
2018-08-13T19:16:11.188Z,5.10
2018-08-13T19:18:48.287Z,5.07
2018-08-13T19:21:19.181Z,5.10
2018-08-13T19:23:50.097Z,5.30
2018-08-13T19:26:20.920Z,4.87
2018-08-13T19:28:52.328Z,5.47
2018-08-13T19:31:23.180Z,5.97
2018-08-13T19:33:54.403Z,4.60
2018-08-13T19:36:25.446Z,5.40
2018-08-13T19:38:57.031Z,5.50
2018-08-13T19:41:27.896Z,6.10
2018-08-13T19:43:58.785Z,6.27
2018-08-13T19:46:32.933Z,5.57
2018-08-13T19:49:14.668Z,5.30
2018-08-13T19:51:46.628Z,5.33
2018-08-13T19:54:18.184Z,5.67
2018-08-13T19:56:49.034Z,5.50
2018-08-13T19:59:25.481Z,5.03
2018-08-13T20:02:01.661Z,6.87
2018-08-13T20:04:37.343Z,4.90
2018-08-13T20:07:14.100Z,5.20
2018-08-13T20:09:49.883Z,5.70
2018-08-13T20:12:25.818Z,6.43
2018-08-13T20:15:01.607Z,7.00
2018-08-13T20:17:37.653Z,6.60
2018-08-13T20:20:16.124Z,6.80
2018-08-13T20:22:52.198Z,7.20
2018-08-13T20:25:28.462Z,6.90
2018-08-13T20:28:04.489Z,7.20
2018-08-13T20:30:40.427Z,6.97
2018-08-13T20:33:16.320Z,6.00
2018-08-13T20:35:52.093Z,5.80
2018-08-13T20:38:28.050Z,5.97
2018-08-13T20:41:03.938Z,5.50
2018-08-13T20:43:39.865Z,5.13
2018-08-13T20:46:15.664Z,5.60
2018-08-13T20:48:51.574Z,7.63
2018-08-13T20:51:27.836Z,16.07
2018-08-13T20:54:04.193Z,6.20
2018-08-13T20:56:40.019Z,6.17
2018-08-13T20:59:15.912Z,5.90
2018-08-13T21:01:52.166Z,6.17
2018-08-13T21:04:28.038Z,6.33
2018-08-13T21:07:03.860Z,6.80
2018-08-13T21:09:39.857Z,6.27
2018-08-13T21:12:15.698Z,6.70
2018-08-13T21:14:51.564Z,6.87
2018-08-13T21:17:27.370Z,6.17
2018-08-13T21:20:03.225Z,7.20
2018-08-13T21:22:39.350Z,6.63
2018-08-13T21:25:15.350Z,6.30
2018-08-13T21:27:51.568Z,6.53
2018-08-13T21:30:27.740Z,5.73
2018-08-13T21:33:03.691Z,6.50
2018-08-13T21:35:39.481Z,5.93
2018-08-13T21:38:15.538Z,6.87
2018-08-13T21:40:51.473Z,6.67
2018-08-13T21:43:28.949Z,5.87
2018-08-13T21:46:04.793Z,6.30
2018-08-13T21:48:40.528Z,6.50
2018-08-13T21:51:17.081Z,6.43
2018-08-13T21:53:52.707Z,6.33
2018-08-13T21:56:28.473Z,6.60
2018-08-13T21:59:04.332Z,6.63
2018-08-13T22:01:45.600Z,7.20
2018-08-13T22:04:21.379Z,9.40
2018-08-13T22:06:57.176Z,7.37
2018-08-13T22:09:33.985Z,7.57
2018-08-13T22:12:14.938Z,6.17
2018-08-13T22:14:50.965Z,6.17
2018-08-13T22:17:26.935Z,6.00
2018-08-13T22:20:02.876Z,6.60
2018-08-13T22:22:38.822Z,5.80
2018-08-13T22:25:17.000Z,7.27
2018-08-13T22:27:53.172Z,8.30
2018-08-13T22:30:29.897Z,6.27
2018-08-13T22:33:06.316Z,8.00
2018-08-13T22:35:42.484Z,9.83
2018-08-13T22:38:18.649Z,10.27
2018-08-13T22:40:54.653Z,7.70
2018-08-13T22:43:30.716Z,6.10
2018-08-13T22:46:06.921Z,7.27
2018-08-13T22:48:43.134Z,6.63
2018-08-13T22:51:19.065Z,6.40
2018-08-13T22:53:55.322Z,6.67
2018-08-13T22:56:31.105Z,5.57
2018-08-13T22:59:06.887Z,5.70
2018-08-13T23:01:42.785Z,6.50
2018-08-13T23:04:18.648Z,6.23
2018-08-13T23:06:54.576Z,5.70
2018-08-13T23:09:30.422Z,6.37
2018-08-13T23:12:09.828Z,6.30
2018-08-13T23:14:46.468Z,6.50
2018-08-13T23:17:22.289Z,6.20
2018-08-13T23:19:58.097Z,8.30
2018-08-13T23:22:44.544Z,7.67
2018-08-13T23:25:20.731Z,7.67
2018-08-13T23:27:57.691Z,7.73
2018-08-13T23:30:34.037Z,7.07
2018-08-13T23:33:10.179Z,6.87
2018-08-13T23:35:46.101Z,7.03
2018-08-13T23:38:22.134Z,6.93
2018-08-13T23:40:58.113Z,7.20
2018-08-13T23:43:34.430Z,7.83
2018-08-13T23:46:10.592Z,7.10
2018-08-13T23:48:46.784Z,7.67
2018-08-13T23:51:22.767Z,8.43
2018-08-13T23:53:59.637Z,8.37
2018-08-13T23:56:35.848Z,8.80
2018-08-13T23:59:11.670Z,7.87
